Time;durP1;ratioP1;P1;durP2;ratioP2;P2;SDS_P1;SDS_P2;PMS_P1;PMS_P2;Temp;Humidity;BMP_temperature;BMP_pressure;BME280_temperature;BME280_humidity;BME280_pressure;Samples;Min_cycle;Max_cycle;Signal;HPM_P1;HPM_P2
2023/10/31 00:01:51;;;;;;;9.15;4.35;;;17.30;87.20;;;;;;4919918;29;20020;-73
2023/10/31 00:04:17;;;;;;;11.65;5.18;;;17.30;87.30;;;;;;4919646;29;20034;-72
2023/10/31 00:06:45;;;;;;;12.32;4.82;;;17.40;87.30;;;;;;4919601;29;20024;-73
2023/10/31 00:09:11;;;;;;;11.25;5.38;;;17.30;87.20;;;;;;4920218;29;20040;-73
2023/10/31 00:11:37;;;;;;;12.32;5.03;;;17.30;87.20;;;;;;4919376;29;20385;-74
2023/10/31 00:14:04;;;;;;;12.60;4.97;;;17.30;87.10;;;;;;4919349;29;20027;-73
2023/10/31 00:16:33;;;;;;;14.35;5.07;;;17.30;87.10;;;;;;4919984;29;20036;-73
2023/10/31 00:18:59;;;;;;;10.85;5.25;;;17.30;87.00;;;;;;4919429;29;20024;-73
2023/10/31 00:21:25;;;;;;;13.57;5.22;;;17.30;87.00;;;;;;4919303;29;20084;-73
2023/10/31 00:23:50;;;;;;;9.15;4.60;;;17.20;87.00;;;;;;4919841;29;20430;-73
2023/10/31 00:26:16;;;;;;;14.05;4.90;;;17.20;87.00;;;;;;4919599;29;20489;-73
2023/10/31 00:28:45;;;;;;;11.73;5.03;;;17.20;87.00;;;;;;4919790;29;20055;-72
2023/10/31 00:31:11;;;;;;;9.75;5.18;;;17.20;87.00;;;;;;4919404;29;20084;-73
2023/10/31 00:33:37;;;;;;;16.10;4.75;;;17.10;86.90;;;;;;4919182;29;20156;-73
2023/10/31 00:36:04;;;;;;;7.50;4.00;;;17.10;86.90;;;;;;4919377;29;20079;-72
2023/10/31 00:38:30;;;;;;;15.82;4.20;;;17.00;86.80;;;;;;4919380;29;20430;-73
2023/10/31 00:40:56;;;;;;;11.02;3.78;;;17.00;86.80;;;;;;4919077;29;20103;-73
2023/10/31 00:43:22;;;;;;;22.15;3.33;;;16.90;86.70;;;;;;4918173;29;20024;-73
2023/10/31 00:45:48;;;;;;;10.60;3.45;;;16.90;86.70;;;;;;4919356;29;20043;-73
2023/10/31 00:48:14;;;;;;;25.38;3.83;;;16.90;86.70;;;;;;4919642;29;20028;-73
2023/10/31 00:50:40;;;;;;;9.82;3.33;;;16.80;86.70;;;;;;4918269;29;20042;-73
2023/10/31 00:53:08;;;;;;;17.85;3.40;;;16.80;86.70;;;;;;4919070;29;20024;-73
2023/10/31 00:55:33;;;;;;;20.92;3.10;;;16.70;86.70;;;;;;4921316;29;20060;-72
2023/10/31 00:58:00;;;;;;;11.25;3.10;;;16.70;86.60;;;;;;4923176;29;20020;-73
2023/10/31 01:00:25;;;;;;;21.55;2.95;;;16.60;86.60;;;;;;4923321;29;20103;-73
2023/10/31 01:02:52;;;;;;;13.98;2.58;;;16.60;86.60;;;;;;4923393;29;20032;-73
2023/10/31 01:05:18;;;;;;;20.27;3.30;;;16.50;86.60;;;;;;4923060;29;20437;-73
2023/10/31 01:07:43;;;;;;;8.93;2.80;;;16.40;86.60;;;;;;4923299;29;20043;-72
2023/10/31 01:10:10;;;;;;;8.65;3.17;;;16.40;86.60;;;;;;4922766;29;20052;-73
2023/10/31 01:12:36;;;;;;;14.55;3.72;;;16.30;86.50;;;;;;4923224;29;20114;-73
2023/10/31 01:15:02;;;;;;;4.50;3.40;;;16.20;86.50;;;;;;4922829;29;20107;-73
2023/10/31 01:17:28;;;;;;;8.38;3.50;;;16.10;86.60;;;;;;4923090;29;20405;-73
2023/10/31 01:19:55;;;;;;;5.88;3.47;;;16.10;86.70;;;;;;4922767;29;20052;-73
2023/10/31 01:22:21;;;;;;;8.55;3.45;;;16.10;86.80;;;;;;4922756;29;20025;-73
2023/10/31 01:24:47;;;;;;;13.85;3.72;;;16.10;86.80;;;;;;4922987;29;20406;-73
2023/10/31 01:27:12;;;;;;;9.82;3.47;;;16.10;86.80;;;;;;4922916;29;20028;-73
2023/10/31 01:29:38;;;;;;;8.65;3.47;;;16.10;86.80;;;;;;4922594;29;20039;-73
2023/10/31 01:32:05;;;;;;;7.13;3.53;;;16.00;86.80;;;;;;4922588;29;20028;-73
2023/10/31 01:34:31;;;;;;;13.80;4.03;;;16.00;86.80;;;;;;4922429;29;20357;-72
2023/10/31 01:36:56;;;;;;;7.25;3.67;;;16.00;86.80;;;;;;4922518;29;20020;-73
2023/10/31 01:39:22;;;;;;;6.60;3.60;;;15.90;86.80;;;;;;4921189;29;20465;-73
2023/10/31 01:41:48;;;;;;;9.93;4.13;;;15.90;86.80;;;;;;4922189;29;20040;-73
2023/10/31 01:44:14;;;;;;;13.18;3.97;;;15.90;86.80;;;;;;4922073;29;20063;-73
2023/10/31 01:46:41;;;;;;;17.73;4.05;;;15.90;86.70;;;;;;4922139;29;20024;-72
2023/10/31 01:49:06;;;;;;;5.45;3.53;;;15.90;86.80;;;;;;4922555;29;20032;-73
2023/10/31 01:51:33;;;;;;;8.60;3.70;;;15.70;86.80;;;;;;4921924;29;20032;-73
2023/10/31 01:53:58;;;;;;;6.60;3.95;;;15.80;86.80;;;;;;4921840;29;20038;-73
2023/10/31 01:56:26;;;;;;;8.95;4.30;;;15.80;86.90;;;;;;4922400;29;20024;-73
2023/10/31 01:58:53;;;;;;;8.10;5.10;;;15.80;87.00;;;;;;4921855;29;20381;-72
2023/10/31 02:01:20;;;;;;;11.30;5.22;;;15.80;87.10;;;;;;4921728;29;20067;-73
2023/10/31 02:03:46;;;;;;;8.98;4.85;;;15.90;87.10;;;;;;4922028;29;20024;-73
2023/10/31 02:06:11;;;;;;;10.25;5.20;;;15.90;87.10;;;;;;4920968;29;20315;-73
2023/10/31 02:08:38;;;;;;;7.70;4.95;;;15.90;87.10;;;;;;4920642;29;20358;-73
2023/10/31 02:11:05;;;;;;;12.15;4.90;;;15.90;87.00;;;;;;4921324;29;20051;-73
2023/10/31 02:13:31;;;;;;;10.32;5.28;;;15.90;87.00;;;;;;4921820;29;20036;-73
2023/10/31 02:15:57;;;;;;;10.65;5.80;;;15.90;87.00;;;;;;4921709;29;20036;-73
2023/10/31 02:18:23;;;;;;;29.98;5.93;;;15.90;87.10;;;;;;4921747;29;20047;-73
2023/10/31 02:20:49;;;;;;;16.23;5.53;;;15.90;87.00;;;;;;4921650;29;20175;-73
2023/10/31 02:23:18;;;;;;;43.17;5.45;;;15.90;86.90;;;;;;4921653;29;20450;-73
2023/10/31 02:25:44;;;;;;;17.58;4.57;;;15.90;86.80;;;;;;4921418;29;20024;-73
2023/10/31 02:28:10;;;;;;;14.07;4.43;;;15.80;86.70;;;;;;4921354;29;20032;-73
2023/10/31 02:30:36;;;;;;;11.93;4.75;;;15.70;86.80;;;;;;4921276;29;20028;-73
2023/10/31 02:33:03;;;;;;;10.07;5.15;;;15.70;86.90;;;;;;4921258;29;20410;-73
2023/10/31 02:35:28;;;;;;;12.20;5.55;;;15.70;86.90;;;;;;4921135;29;20028;-73
2023/10/31 02:37:54;;;;;;;11.25;5.88;;;15.70;87.00;;;;;;4921199;29;20024;-73
2023/10/31 02:40:20;;;;;;;15.55;7.88;;;15.70;87.00;;;;;;4921079;29;20099;-73
2023/10/31 02:42:46;;;;;;;15.00;6.30;;;15.70;87.20;;;;;;4921400;29;20021;-73
2023/10/31 02:45:12;;;;;;;14.07;8.10;;;15.70;87.40;;;;;;4921081;29;20024;-73
2023/10/31 02:47:38;;;;;;;12.80;7.65;;;15.80;87.40;;;;;;4920069;29;20115;-73
2023/10/31 02:50:05;;;;;;;13.07;7.18;;;15.80;87.70;;;;;;4921078;29;20356;-73
2023/10/31 02:52:31;;;;;;;15.23;8.05;;;15.80;87.60;;;;;;4920885;29;20092;-73
2023/10/31 02:54:57;;;;;;;17.17;8.25;;;15.80;87.50;;;;;;4920810;29;20020;-73
2023/10/31 02:57:23;;;;;;;23.67;8.73;;;15.80;87.50;;;;;;4919956;29;20028;-73
2023/10/31 02:59:49;;;;;;;13.93;8.35;;;15.80;87.40;;;;;;4920973;29;20052;-73
2023/10/31 03:02:15;;;;;;;15.13;8.20;;;15.80;87.40;;;;;;4921268;29;20028;-73
2023/10/31 03:04:41;;;;;;;17.02;9.57;;;15.90;87.50;;;;;;4920757;29;20103;-73
2023/10/31 03:07:07;;;;;;;23.38;9.23;;;15.90;87.80;;;;;;4921177;29;20080;-73
2023/10/31 03:09:33;;;;;;;19.80;8.57;;;15.90;87.80;;;;;;4919384;29;20076;-73
2023/10/31 03:11:59;;;;;;;26.52;8.95;;;15.90;87.60;;;;;;4920489;29;20035;-73
2023/10/31 03:14:25;;;;;;;19.60;8.35;;;15.90;87.40;;;;;;4920719;29;20019;-73
2023/10/31 03:16:51;;;;;;;23.70;9.63;;;15.90;87.40;;;;;;4920732;29;20058;-73
2023/10/31 03:19:17;;;;;;;17.92;9.18;;;15.80;87.40;;;;;;4919246;29;20027;-73
2023/10/31 03:21:43;;;;;;;18.05;9.23;;;15.90;87.60;;;;;;4920946;29;20028;-73
2023/10/31 03:24:09;;;;;;;15.05;8.63;;;15.80;87.60;;;;;;4920600;29;20107;-73
2023/10/31 03:26:35;;;;;;;22.52;8.95;;;15.80;87.90;;;;;;4920254;29;20357;-73
2023/10/31 03:29:01;;;;;;;21.50;8.90;;;15.80;87.80;;;;;;4920464;29;20180;-73
2023/10/31 03:31:27;;;;;;;21.63;9.27;;;15.80;87.70;;;;;;4920432;29;20505;-73
2023/10/31 03:33:54;;;;;;;23.73;9.77;;;15.80;87.70;;;;;;4920093;29;20028;-73
2023/10/31 03:36:20;;;;;;;21.60;9.38;;;15.70;87.70;;;;;;4920112;29;20160;-73
2023/10/31 03:38:46;;;;;;;21.40;10.10;;;15.80;87.70;;;;;;4920622;29;20095;-73
2023/10/31 03:41:13;;;;;;;32.00;11.13;;;15.70;88.00;;;;;;4919889;29;20483;-73
2023/10/31 03:43:39;;;;;;;25.92;10.02;;;15.70;88.70;;;;;;4919923;29;20155;-73
2023/10/31 03:46:05;;;;;;;34.13;11.30;;;15.70;88.80;;;;;;4919930;29;20056;-74
2023/10/31 03:48:31;;;;;;;51.47;11.88;;;15.70;88.80;;;;;;4919918;29;20162;-73
2023/10/31 03:50:58;;;;;;;33.08;11.45;;;15.80;88.80;;;;;;4920005;29;20142;-73
2023/10/31 03:53:25;;;;;;;33.78;11.70;;;15.70;88.70;;;;;;4920095;29;20387;-73
2023/10/31 03:55:50;;;;;;;45.25;12.63;;;15.70;88.70;;;;;;4919747;29;20111;-73
2023/10/31 03:58:16;;;;;;;35.45;12.98;;;15.70;88.80;;;;;;4920264;29;20111;-73
2023/10/31 04:00:42;;;;;;;42.97;14.13;;;15.70;88.80;;;;;;4919829;29;20028;-73
2023/10/31 04:03:08;;;;;;;35.85;13.60;;;15.70;89.00;;;;;;4919951;29;20486;-74
2023/10/31 04:05:34;;;;;;;26.23;11.90;;;15.70;88.90;;;;;;4919860;29;20040;-73
2023/10/31 04:08:00;;;;;;;38.13;15.90;;;15.70;88.90;;;;;;4919850;29;20373;-73
2023/10/31 04:10:26;;;;;;;24.58;13.35;;;15.70;89.30;;;;;;4919529;29;20088;-73
2023/10/31 04:12:52;;;;;;;28.77;14.40;;;15.70;89.40;;;;;;4919524;29;20040;-73
2023/10/31 04:15:18;;;;;;;32.13;13.23;;;15.70;89.60;;;;;;4919443;29;20036;-73
2023/10/31 04:17:44;;;;;;;26.15;13.18;;;15.70;89.50;;;;;;4919498;29;20020;-74
2023/10/31 04:20:10;;;;;;;27.92;13.20;;;15.70;89.40;;;;;;4919497;29;20024;-73
2023/10/31 04:22:36;;;;;;;25.08;13.20;;;15.80;89.40;;;;;;4919401;29;20036;-73
2023/10/31 04:25:03;;;;;;;26.52;13.10;;;15.70;89.30;;;;;;4919368;29;20032;-73
2023/10/31 04:27:29;;;;;;;25.83;13.88;;;15.80;89.30;;;;;;4919817;29;20441;-73
2023/10/31 04:29:55;;;;;;;24.98;13.32;;;15.80;89.30;;;;;;4918661;29;20067;-73
2023/10/31 04:32:21;;;;;;;22.20;12.10;;;15.80;89.40;;;;;;4919190;29;20068;-73
2023/10/31 04:34:47;;;;;;;28.08;13.57;;;15.70;89.40;;;;;;4919696;29;20040;-73
2023/10/31 04:37:13;;;;;;;22.52;13.40;;;15.90;89.40;;;;;;4919490;29;20025;-73
2023/10/31 04:39:39;;;;;;;24.95;13.80;;;15.80;89.30;;;;;;4919353;29;20032;-73
2023/10/31 04:42:05;;;;;;;23.98;12.40;;;15.80;89.30;;;;;;4919402;29;20439;-73
2023/10/31 04:44:31;;;;;;;24.50;12.70;;;15.90;89.30;;;;;;4919135;29;20196;-73
2023/10/31 04:46:57;;;;;;;23.85;12.68;;;15.90;89.40;;;;;;4919609;29;20107;-73
2023/10/31 04:49:23;;;;;;;18.98;11.10;;;15.90;89.40;;;;;;4919028;29;20104;-73
2023/10/31 04:51:49;;;;;;;22.35;10.90;;;15.80;89.30;;;;;;4919304;29;20387;-73
2023/10/31 04:54:15;;;;;;;16.85;9.88;;;15.80;89.30;;;;;;4919243;29;20111;-73
2023/10/31 04:56:41;;;;;;;23.10;11.43;;;15.90;89.20;;;;;;4919560;29;20342;-73
2023/10/31 04:59:06;;;;;;;21.42;10.68;;;15.90;89.10;;;;;;4918013;29;20083;-73
2023/10/31 05:01:32;;;;;;;20.65;10.50;;;15.90;89.00;;;;;;4917928;29;20024;-73
2023/10/31 05:03:58;;;;;;;18.83;9.85;;;15.90;88.90;;;;;;4919224;29;20521;-74
2023/10/31 05:06:24;;;;;;;22.90;10.82;;;15.90;89.00;;;;;;4919175;29;20034;-73
2023/10/31 05:08:50;;;;;;;17.08;9.45;;;15.90;89.00;;;;;;4918862;29;20064;-73
2023/10/31 05:11:18;;;;;;;16.65;8.95;;;15.90;89.00;;;;;;4918727;29;20070;-74
2023/10/31 05:13:45;;;;;;;14.80;7.75;;;15.90;89.00;;;;;;4918891;29;20048;-73
2023/10/31 05:16:13;;;;;;;14.52;7.78;;;15.90;89.00;;;;;;4919079;29;20472;-73
2023/10/31 05:18:39;;;;;;;22.75;12.77;;;15.90;88.90;;;;;;4918847;29;20453;-74
2023/10/31 05:21:05;;;;;;;15.75;9.00;;;16.00;88.80;;;;;;4918754;29;20025;-73
2023/10/31 05:23:31;;;;;;;16.73;8.93;;;15.90;88.70;;;;;;4919006;29;20028;-74
2023/10/31 05:25:57;;;;;;;17.42;8.05;;;15.90;88.60;;;;;;4919040;29;20028;-73
2023/10/31 05:28:23;;;;;;;15.85;8.75;;;16.00;88.60;;;;;;4918763;29;20365;-73
2023/10/31 05:30:49;;;;;;;16.58;8.25;;;15.90;88.60;;;;;;4918971;29;20039;-73
2023/10/31 05:33:16;;;;;;;17.38;8.30;;;15.90;88.60;;;;;;4918732;29;20406;-73
2023/10/31 05:35:42;;;;;;;17.05;8.63;;;15.90;88.60;;;;;;4918618;29;20028;-74
2023/10/31 05:38:08;;;;;;;19.20;8.07;;;15.90;88.70;;;;;;4918691;29;20031;-73
2023/10/31 05:40:37;;;;;;;16.05;8.20;;;15.90;88.80;;;;;;4919278;29;20032;-73
2023/10/31 05:43:03;;;;;;;18.25;7.57;;;15.90;88.90;;;;;;4922458;29;20028;-73
2023/10/31 05:45:30;;;;;;;13.75;7.22;;;15.90;88.90;;;;;;4922689;29;20039;-73
2023/10/31 05:47:56;;;;;;;13.30;7.25;;;15.90;88.90;;;;;;4921291;29;20387;-74
2023/10/31 05:50:22;;;;;;;17.98;7.93;;;15.90;88.80;;;;;;4922271;29;20035;-73
2023/10/31 05:52:48;;;;;;;14.18;7.57;;;15.90;88.80;;;;;;4921089;29;20036;-73
2023/10/31 05:55:14;;;;;;;12.23;6.55;;;15.90;88.80;;;;;;4921967;29;20032;-73
2023/10/31 05:57:41;;;;;;;16.77;6.25;;;15.90;88.70;;;;;;4921942;29;20052;-73
2023/10/31 06:00:08;;;;;;;13.13;6.85;;;16.00;88.70;;;;;;4922038;29;20027;-74
2023/10/31 06:02:34;;;;;;;16.63;7.13;;;15.90;88.60;;;;;;4920983;29;20035;-73
2023/10/31 06:05:00;;;;;;;15.57;7.80;;;15.90;88.50;;;;;;4921873;29;20404;-73
2023/10/31 06:07:26;;;;;;;17.02;7.18;;;15.90;88.50;;;;;;4921754;29;20024;-73
2023/10/31 06:09:52;;;;;;;13.75;7.60;;;16.00;88.40;;;;;;4921803;29;20039;-74
2023/10/31 06:12:18;;;;;;;14.75;6.82;;;15.90;88.30;;;;;;4921708;29;20056;-74
2023/10/31 06:14:43;;;;;;;15.00;7.65;;;16.00;88.30;;;;;;4921559;29;20108;-74
2023/10/31 06:17:10;;;;;;;15.95;7.00;;;15.90;88.20;;;;;;4922026;29;20069;-73
2023/10/31 06:19:36;;;;;;;11.13;7.00;;;15.90;88.20;;;;;;4921731;29;20028;-73
2023/10/31 06:22:02;;;;;;;15.88;7.20;;;15.90;88.20;;;;;;4921526;29;20103;-73
2023/10/31 06:24:29;;;;;;;15.65;7.35;;;15.90;88.20;;;;;;4922008;29;20449;-73
2023/10/31 06:26:55;;;;;;;15.05;7.07;;;15.90;88.20;;;;;;4921670;29;20028;-74
2023/10/31 06:29:21;;;;;;;13.70;6.53;;;15.90;88.20;;;;;;4921234;29;20039;-67
2023/10/31 06:31:47;;;;;;;13.32;7.25;;;15.90;88.20;;;;;;4921522;29;20042;-70
2023/10/31 06:34:13;;;;;;;15.57;7.50;;;15.90;88.30;;;;;;4921209;29;20024;-73
2023/10/31 06:36:39;;;;;;;13.57;7.22;;;15.90;88.30;;;;;;4921519;29;20032;-74
2023/10/31 06:39:05;;;;;;;12.65;6.93;;;15.90;88.30;;;;;;4921211;29;20083;-76
2023/10/31 06:41:33;;;;;;;14.10;7.15;;;16.00;88.30;;;;;;4921601;29;20059;-76
2023/10/31 06:43:59;;;;;;;12.65;5.97;;;15.90;88.30;;;;;;4921119;29;20056;-75
2023/10/31 06:46:25;;;;;;;14.25;6.68;;;16.00;88.30;;;;;;4921609;29;20465;-76
2023/10/31 06:48:51;;;;;;;11.40;5.88;;;16.00;88.30;;;;;;4921315;29;20033;-75
2023/10/31 06:51:17;;;;;;;13.13;6.53;;;16.00;88.30;;;;;;4921214;29;20112;-76
2023/10/31 06:53:43;;;;;;;10.10;5.55;;;16.20;88.30;;;;;;4920856;29;20055;-76
2023/10/31 06:56:09;;;;;;;12.90;5.50;;;16.20;88.30;;;;;;4921367;29;20078;-76
2023/10/31 06:58:35;;;;;;;8.73;5.03;;;16.40;88.20;;;;;;4920834;29;20028;-75
2023/10/31 07:01:02;;;;;;;9.52;5.47;;;16.40;88.00;;;;;;4921221;29;20024;-76
2023/10/31 07:03:32;;;;;;;11.40;5.78;;;16.40;87.80;;;;;;4921049;29;20032;-75
2023/10/31 07:05:59;;;;;;;11.23;5.93;;;16.50;87.90;;;;;;4921031;29;20032;-76
2023/10/31 07:08:25;;;;;;;11.55;5.72;;;16.60;88.00;;;;;;4920638;29;20437;-76
2023/10/31 07:10:51;;;;;;;12.90;6.43;;;16.80;88.10;;;;;;4920478;29;20058;-76
2023/10/31 07:13:17;;;;;;;12.70;6.72;;;17.00;88.10;;;;;;4920901;29;20435;-76
2023/10/31 07:15:44;;;;;;;11.45;5.80;;;17.20;87.80;;;;;;4920443;29;20028;-76
2023/10/31 07:18:10;;;;;;;9.23;5.20;;;17.20;87.50;;;;;;4921041;29;20050;-76
2023/10/31 07:20:36;;;;;;;9.63;5.70;;;17.20;87.30;;;;;;4920339;29;20533;-76
2023/10/31 07:23:02;;;;;;;11.27;6.05;;;17.20;87.20;;;;;;4920400;29;20099;-76
2023/10/31 07:25:28;;;;;;;10.40;4.90;;;17.30;87.20;;;;;;4920353;29;20039;-76
2023/10/31 07:27:54;;;;;;;10.70;5.57;;;17.40;87.30;;;;;;4920318;29;20024;-76
2023/10/31 07:30:20;;;;;;;13.82;5.40;;;17.50;87.30;;;;;;4920317;29;20379;-76
2023/10/31 07:32:46;;;;;;;10.40;5.53;;;17.70;87.20;;;;;;4920765;29;20036;-76
2023/10/31 07:35:12;;;;;;;11.57;5.85;;;17.80;87.10;;;;;;4920138;29;20402;-76
2023/10/31 07:37:39;;;;;;;10.05;5.25;;;17.90;86.90;;;;;;4920441;29;20024;-75
2023/10/31 07:40:05;;;;;;;14.82;6.28;;;18.20;86.70;;;;;;4920063;29;20104;-75
2023/10/31 07:42:31;;;;;;;9.32;5.57;;;18.30;86.40;;;;;;4920302;29;20028;-76
2023/10/31 07:44:57;;;;;;;6.88;4.15;;;18.40;86.30;;;;;;4919953;29;20111;-75
2023/10/31 07:47:23;;;;;;;10.45;5.53;;;18.40;86.00;;;;;;4919929;29;20028;-75
2023/10/31 07:49:49;;;;;;;10.82;5.20;;;18.60;85.80;;;;;;4919819;29;20032;-75
2023/10/31 07:52:15;;;;;;;8.77;4.40;;;18.60;85.60;;;;;;4920140;29;20043;-75
2023/10/31 07:54:42;;;;;;;12.00;4.40;;;18.70;85.40;;;;;;4920310;29;20115;-75
2023/10/31 07:57:09;;;;;;;9.65;4.38;;;18.80;85.00;;;;;;4920274;29;20032;-75
2023/10/31 07:59:36;;;;;;;10.13;4.25;;;18.90;85.00;;;;;;4919918;29;20316;-75
2023/10/31 08:02:03;;;;;;;8.15;4.28;;;18.90;84.80;;;;;;4919675;29;20056;-75
2023/10/31 08:04:32;;;;;;;6.68;4.00;;;18.90;84.70;;;;;;4919143;29;20024;-74
2023/10/31 08:06:58;;;;;;;10.73;4.93;;;19.00;84.60;;;;;;4919591;29;20032;-75
2023/10/31 08:09:24;;;;;;;11.80;5.50;;;19.00;84.30;;;;;;4920030;29;20031;-75
2023/10/31 08:11:50;;;;;;;11.55;5.20;;;19.10;84.20;;;;;;4919198;29;20060;-68
2023/10/31 08:14:16;;;;;;;8.80;4.57;;;19.10;84.00;;;;;;4919422;29;20052;-68
2023/10/31 08:16:43;;;;;;;8.50;4.40;;;19.20;84.00;;;;;;4919939;29;20042;-68
2023/10/31 08:19:09;;;;;;;6.60;4.45;;;19.30;83.70;;;;;;4919464;29;20446;-67
2023/10/31 08:21:35;;;;;;;6.50;4.07;;;19.30;83.30;;;;;;4919326;29;20024;-67
2023/10/31 08:24:05;;;;;;;9.38;4.07;;;19.40;83.30;;;;;;5204658;23;20146;-67
2023/10/31 08:26:32;;;;;;;8.77;4.20;;;19.40;83.10;;;;;;4938830;29;20023;-68
2023/10/31 08:29:01;;;;;;;9.07;4.13;;;19.40;82.60;;;;;;4938811;29;20071;-68
2023/10/31 08:31:27;;;;;;;7.43;4.18;;;19.40;82.80;;;;;;4938284;29;20027;-67
2023/10/31 08:33:53;;;;;;;6.85;3.88;;;19.40;82.10;;;;;;4928436;29;20028;-67
2023/10/31 08:36:19;;;;;;;7.05;3.92;;;19.40;81.40;;;;;;4919087;29;20071;-67
2023/10/31 08:38:45;;;;;;;6.65;2.75;;;19.40;81.70;;;;;;4919265;29;20052;-67
2023/10/31 08:41:11;;;;;;;7.60;3.40;;;19.50;80.50;;;;;;4902537;29;20433;-67
2023/10/31 08:43:37;;;;;;;7.53;3.40;;;19.50;80.40;;;;;;4919367;29;20024;-67
2023/10/31 08:46:03;;;;;;;7.35;3.22;;;19.50;79.90;;;;;;4919360;29;20354;-66
2023/10/31 08:48:29;;;;;;;4.30;2.80;;;19.50;80.40;;;;;;4919078;29;20409;-66
2023/10/31 08:50:55;;;;;;;6.18;3.20;;;19.50;79.80;;;;;;4919356;29;20024;-66
2023/10/31 08:53:21;;;;;;;5.47;3.17;;;19.60;79.70;;;;;;4919028;29;20039;-66
2023/10/31 08:58:18;;;;;;;8.18;3.03;;;19.60;77.90;;;;;;5199682;23;20062;-64
2023/10/31 09:00:44;;;;;;;8.68;3.78;;;19.60;76.50;;;;;;4937063;29;20047;-64
2023/10/31 09:03:10;;;;;;;7.97;4.18;;;19.60;77.20;;;;;;4937944;29;20047;-64
2023/10/31 09:05:38;;;;;;;9.98;4.32;;;19.50;77.20;;;;;;4937005;29;20080;-65
2023/10/31 09:08:05;;;;;;;9.15;4.10;;;19.50;77.80;;;;;;4926424;29;20048;-67
2023/10/31 09:13:00;;;;;;;4.13;1.98;;;19.50;77.60;;;;;;5194794;23;20131;-67
2023/10/31 09:15:26;;;;;;;3.67;1.60;;;19.50;75.70;;;;;;4938296;29;20405;-67
2023/10/31 09:17:52;;;;;;;3.35;1.35;;;19.40;73.00;;;;;;4941926;29;20035;-67
2023/10/31 09:20:18;;;;;;;2.83;0.90;;;19.30;73.10;;;;;;4942151;29;20023;-67
2023/10/31 09:22:44;;;;;;;2.28;1.33;;;19.10;71.60;;;;;;4931506;29;20067;-67
2023/10/31 09:25:10;;;;;;;2.40;1.35;;;18.90;72.60;;;;;;5231564;23;20468;-66
2023/10/31 09:27:39;;;;;;;2.88;1.50;;;18.80;72.20;;;;;;4941305;29;20024;-65
2023/10/31 09:30:06;;;;;;;2.03;1.30;;;18.60;71.90;;;;;;4941347;29;20020;-66
2023/10/31 09:32:32;;;;;;;2.42;1.40;;;18.40;72.10;;;;;;4941011;29;20089;-64
2023/10/31 09:34:58;;;;;;;3.88;1.65;;;18.30;72.50;;;;;;4931823;29;20028;-65
2023/10/31 09:37:24;;;;;;;2.90;1.65;;;18.10;73.00;;;;;;4922574;29;20036;-65
2023/10/31 09:42:26;;;;;;;3.03;1.90;;;17.90;74.90;;;;;;5001512;23;20067;-67
2023/10/31 09:44:52;;;;;;;3.25;1.25;;;17.90;74.00;;;;;;4921322;29;20024;-67
2023/10/31 09:47:20;;;;;;;1.50;1.00;;;17.90;75.10;;;;;;4922706;29;20032;-67
2023/10/31 09:49:46;;;;;;;1.13;0.90;;;17.90;75.30;;;;;;4917328;29;20044;-68
2023/10/31 09:52:13;;;;;;;1.90;1.50;;;17.90;75.20;;;;;;4905143;29;20043;-67
2023/10/31 09:54:41;;;;;;;3.08;2.17;;;17.90;75.50;;;;;;4902819;29;20112;-67
2023/10/31 09:57:07;;;;;;;2.75;1.42;;;17.90;75.20;;;;;;4902900;29;20032;-67
2023/10/31 09:59:33;;;;;;;2.67;1.10;;;17.90;75.10;;;;;;4903553;29;20332;-67
2023/10/31 10:01:59;;;;;;;1.33;1.00;;;17.90;75.10;;;;;;4903051;29;20080;-67
2023/10/31 10:04:26;;;;;;;4.25;2.50;;;17.90;73.40;;;;;;4902967;29;20120;-67
2023/10/31 10:07:00;;;;;;;4.28;2.08;;;17.90;74.40;;;;;;4902905;29;20036;-67
2023/10/31 10:09:27;;;;;;;3.90;1.70;;;17.90;74.90;;;;;;4903180;29;20062;-67
2023/10/31 10:11:54;;;;;;;5.00;2.30;;;17.90;74.80;;;;;;4902713;29;20509;-67
2023/10/31 10:14:23;;;;;;;2.58;1.60;;;17.80;74.00;;;;;;4902635;29;20450;-67
2023/10/31 10:16:49;;;;;;;4.93;3.65;;;17.70;74.40;;;;;;4902672;29;20045;-67
2023/10/31 10:19:19;;;;;;;2.20;2.00;;;17.60;73.90;;;;;;4903192;29;20024;-67
2023/10/31 10:21:49;;;;;;;3.30;1.63;;;17.50;73.70;;;;;;4886216;29;20029;-67
2023/10/31 10:24:17;;;;;;;1.77;1.20;;;17.50;73.80;;;;;;4901701;29;20052;-67
2023/10/31 10:26:43;;;;;;;0.93;0.93;;;17.40;71.80;;;;;;4902877;29;20064;-67
2023/10/31 10:29:09;;;;;;;1.52;1.42;;;17.30;72.00;;;;;;4900874;29;20036;-67
2023/10/31 10:31:35;;;;;;;1.38;1.27;;;17.20;72.50;;;;;;4902635;29;20024;-67
2023/10/31 10:34:01;;;;;;;1.17;1.00;;;17.10;73.50;;;;;;4902956;29;20021;-67
2023/10/31 10:36:28;;;;;;;2.45;0.80;;;17.00;73.10;;;;;;4901330;29;20033;-67
2023/10/31 10:38:57;;;;;;;4.03;2.20;;;17.10;73.60;;;;;;4901354;29;20391;-67
2023/10/31 10:41:27;;;;;;;1.65;1.17;;;17.10;73.30;;;;;;5180855;23;20520;-67
2023/10/31 10:44:06;;;;;;;1.23;1.10;;;17.10;73.60;;;;;;4902263;29;20025;-67
2023/10/31 10:46:34;;;;;;;1.98;1.38;;;17.20;74.10;;;;;;4901604;29;20468;-67
2023/10/31 10:49:04;;;;;;;3.28;2.60;;;17.30;73.60;;;;;;4902687;29;20127;-67
2023/10/31 10:51:49;;;;;;;1.10;1.00;;;17.40;72.60;;;;;;4889143;29;20029;-67
2023/10/31 10:54:25;;;;;;;4.18;0.80;;;17.50;73.20;;;;;;4883863;29;20099;-67
2023/10/31 10:56:59;;;;;;;1.70;0.90;;;17.60;73.20;;;;;;4882775;29;20029;-67
2023/10/31 10:59:41;;;;;;;1.63;0.95;;;17.60;72.80;;;;;;4867609;29;20029;-67
2023/10/31 11:02:08;;;;;;;0.90;0.70;;;17.80;72.70;;;;;;4897841;29;20474;-67
2023/10/31 11:04:34;;;;;;;0.65;0.65;;;17.90;72.50;;;;;;4883188;29;20040;-67
2023/10/31 11:12:43;;;;;;;0.75;0.75;;;18.20;71.40;;;;;;4901014;29;20071;-66
2023/10/31 11:15:11;;;;;;;1.55;0.98;;;18.20;71.50;;;;;;4901852;29;20036;-67
2023/10/31 11:17:41;;;;;;;0.68;0.55;;;18.30;70.90;;;;;;4902118;29;20060;-67
2023/10/31 11:20:10;;;;;;;3.22;1.23;;;18.30;71.50;;;;;;4900521;29;20036;-67
2023/10/31 11:22:40;;;;;;;2.08;1.00;;;18.30;71.00;;;;;;4901495;29;20453;-67
2023/10/31 11:25:12;;;;;;;3.63;1.80;;;18.30;70.30;;;;;;4916235;29;20028;-67
2023/10/31 11:27:37;;;;;;;2.40;1.42;;;18.20;70.40;;;;;;4901289;29;20044;-67
2023/10/31 11:30:27;;;;;;;2.28;1.70;;;18.20;70.90;;;;;;4901576;29;20045;-67
2023/10/31 11:32:55;;;;;;;2.05;1.30;;;18.20;70.20;;;;;;4901582;29;20057;-67
2023/10/31 11:35:30;;;;;;;2.75;1.85;;;18.20;70.90;;;;;;4901202;29;20080;-67
2023/10/31 11:38:08;;;;;;;3.47;2.38;;;18.20;71.40;;;;;;4901186;29;20036;-67
2023/10/31 11:40:55;;;;;;;3.63;1.77;;;18.20;69.90;;;;;;4901224;29;20025;-67
2023/10/31 11:43:22;;;;;;;2.95;2.00;;;18.20;70.80;;;;;;4901543;29;20032;-67
2023/10/31 11:45:48;;;;;;;3.30;1.35;;;18.20;70.50;;;;;;4901616;29;20039;-67
2023/10/31 11:48:15;;;;;;;2.70;1.38;;;18.20;70.80;;;;;;4901059;29;20129;-67
2023/10/31 11:50:42;;;;;;;1.90;1.30;;;18.20;71.20;;;;;;4901161;29;20029;-67
2023/10/31 11:53:16;;;;;;;2.08;1.40;;;18.20;71.40;;;;;;4901233;29;20037;-67
2023/10/31 11:55:47;;;;;;;1.45;1.33;;;18.20;71.50;;;;;;4885037;29;20040;-67
2023/10/31 11:58:13;;;;;;;2.72;1.30;;;18.20;71.10;;;;;;4900869;29;20358;-67
2023/10/31 12:00:39;;;;;;;1.58;1.20;;;18.20;71.20;;;;;;4901002;29;20028;-67
2023/10/31 12:03:05;;;;;;;2.30;1.10;;;18.30;71.20;;;;;;4901045;29;20391;-67
2023/10/31 12:05:31;;;;;;;1.17;1.10;;;18.30;71.70;;;;;;4900978;29;20085;-67
2023/10/31 12:07:57;;;;;;;3.47;1.02;;;18.30;71.90;;;;;;4899726;29;20064;-67
2023/10/31 12:12:48;;;;;;;1.33;0.80;;;18.30;72.20;;;;;;5205099;23;20437;-67
2023/10/31 12:15:14;;;;;;;1.95;0.90;;;18.30;72.50;;;;;;4937922;29;20106;-67
2023/10/31 12:17:40;;;;;;;1.38;0.70;;;18.30;72.10;;;;;;4938570;29;20035;-67
2023/10/31 12:20:08;;;;;;;1.10;1.00;;;18.30;72.10;;;;;;4937542;29;20031;-67
2023/10/31 12:22:37;;;;;;;0.63;0.60;;;18.20;72.00;;;;;;5186523;23;20055;-66
2023/10/31 12:25:03;;;;;;;1.63;0.73;;;18.20;71.30;;;;;;4937358;29;20047;-66
2023/10/31 12:28:05;;;;;;;0.60;0.60;;;18.10;70.90;;;;;;4938303;29;20134;-66
2023/10/31 12:30:30;;;;;;;1.38;0.75;;;18.10;69.50;;;;;;5505288;23;20063;-66
2023/10/31 12:32:57;;;;;;;1.05;0.90;;;18.00;69.70;;;;;;4919119;29;20361;-66
2023/10/31 12:35:25;;;;;;;0.80;0.73;;;18.00;70.40;;;;;;4919384;29;20087;-66
2023/10/31 12:37:52;;;;;;;1.20;1.10;;;17.90;70.30;;;;;;4919488;29;20043;-66
2023/10/31 12:40:20;;;;;;;1.70;1.08;;;17.80;69.70;;;;;;5427592;23;20055;-66
2023/10/31 12:42:47;;;;;;;1.52;1.08;;;17.70;69.90;;;;;;4937159;29;20130;-66
2023/10/31 12:45:14;;;;;;;2.05;1.10;;;17.70;69.60;;;;;;4937258;29;20437;-66
2023/10/31 12:47:40;;;;;;;2.15;0.90;;;17.60;69.90;;;;;;4938135;29;20027;-66
2023/10/31 12:50:13;;;;;;;2.60;1.25;;;17.60;69.90;;;;;;4920994;29;20023;-66
2023/10/31 12:52:50;;;;;;;;;;;17.50;70.80;;;;;;4939054;29;20093;-66
2023/10/31 12:55:47;;;;;;;2.33;1.10;;;17.50;68.70;;;;;;4937958;29;20018;-66